createdAt,value
2019-01-15T00:00:33.570Z,101943.58
2019-01-15T00:03:02.686Z,101940.81
2019-01-15T00:05:31.829Z,101946.47
2019-01-15T00:08:00.884Z,101942.12
2019-01-15T00:10:29.970Z,101937.36
2019-01-15T00:12:59.073Z,101940.65
2019-01-15T00:15:28.168Z,101932.41
2019-01-15T00:17:57.271Z,101945.94
2019-01-15T00:20:26.366Z,101953.78
2019-01-15T00:22:55.475Z,101959.07
2019-01-15T00:25:24.526Z,101952.78
2019-01-15T00:27:53.750Z,101959.57
2019-01-15T00:30:22.909Z,101958.84
2019-01-15T00:32:52.014Z,101963.56
2019-01-15T00:35:21.162Z,101961.12
2019-01-15T00:37:50.262Z,101955.81
2019-01-15T00:40:19.311Z,101955.00
2019-01-15T00:42:48.973Z,101948.76
2019-01-15T00:45:18.051Z,101951.42
2019-01-15T00:47:47.145Z,101938.45
2019-01-15T00:50:16.269Z,101941.45
2019-01-15T00:52:45.356Z,101946.80
2019-01-15T00:55:14.487Z,101948.83
2019-01-15T00:57:43.588Z,101940.09
2019-01-15T01:00:18.100Z,101935.39
2019-01-15T01:02:47.222Z,101944.97
2019-01-15T01:05:16.419Z,101920.80
2019-01-15T01:07:45.493Z,101923.39
2019-01-15T01:10:14.768Z,101933.86
2019-01-15T01:12:43.884Z,101942.14
2019-01-15T01:15:14.479Z,101941.98
2019-01-15T01:17:43.569Z,101934.97
2019-01-15T01:20:14.998Z,101936.86
2019-01-15T01:22:44.103Z,101930.74
2019-01-15T01:25:13.429Z,101935.37
2019-01-15T01:27:42.537Z,101937.99
2019-01-15T01:30:17.158Z,101936.92
2019-01-15T01:32:46.230Z,101932.99
2019-01-15T01:35:15.297Z,101931.48
2019-01-15T01:37:44.344Z,101944.12
2019-01-15T01:40:18.639Z,101947.80
2019-01-15T01:42:47.804Z,101950.28
2019-01-15T01:45:17.418Z,101941.14
2019-01-15T01:47:46.481Z,101940.56
2019-01-15T01:50:15.707Z,101941.98
2019-01-15T01:52:44.920Z,101944.91
2019-01-15T01:55:15.239Z,101935.66
2019-01-15T01:57:44.481Z,101944.80
2019-01-15T02:00:15.858Z,101959.14
2019-01-15T02:02:44.999Z,101955.34
2019-01-15T02:05:14.116Z,101949.48
2019-01-15T02:07:43.214Z,101952.36
2019-01-15T02:10:14.811Z,101952.02
2019-01-15T02:12:43.876Z,101962.06
2019-01-15T02:15:14.448Z,101950.22
2019-01-15T02:17:43.505Z,101961.56
2019-01-15T02:20:13.600Z,101968.78
2019-01-15T02:22:42.684Z,101961.91
2019-01-15T02:25:11.772Z,101957.64
2019-01-15T02:27:43.800Z,101946.64
2019-01-15T02:30:18.285Z,101933.56
2019-01-15T02:32:47.375Z,101923.79
2019-01-15T02:35:16.434Z,101915.66
2019-01-15T02:37:45.698Z,101920.45
2019-01-15T02:40:14.802Z,101918.66
2019-01-15T02:42:46.744Z,101912.45
2019-01-15T02:45:16.506Z,101925.70
2019-01-15T02:47:45.642Z,101928.86
2019-01-15T02:50:16.047Z,101925.98
2019-01-15T02:52:45.126Z,101919.13
2019-01-15T02:55:14.249Z,101915.34
2019-01-15T02:57:43.474Z,101922.86
2019-01-15T03:00:16.018Z,101915.34
2019-01-15T03:02:45.096Z,101907.77
2019-01-15T03:05:14.369Z,101909.47
2019-01-15T03:07:43.511Z,101914.07
2019-01-15T03:10:13.859Z,101916.33
2019-01-15T03:12:44.717Z,101907.92
2019-01-15T03:15:13.834Z,101908.09
2019-01-15T03:17:42.905Z,101910.04
2019-01-15T03:20:12.047Z,101907.21
2019-01-15T03:22:41.123Z,101902.97
2019-01-15T03:25:10.366Z,101903.17
2019-01-15T03:27:39.433Z,101905.45
2019-01-15T03:30:11.205Z,101899.28
2019-01-15T03:32:40.294Z,101901.83
2019-01-15T03:35:09.359Z,101899.50
2019-01-15T03:37:38.419Z,101893.02
2019-01-15T03:40:10.505Z,101899.57
2019-01-15T03:42:39.586Z,101908.98
2019-01-15T03:45:08.761Z,101905.70
2019-01-15T03:47:37.859Z,101905.31
2019-01-15T03:50:07.542Z,101895.46
2019-01-15T03:52:36.641Z,101894.91
2019-01-15T03:55:06.064Z,101896.02
2019-01-15T03:57:35.100Z,101892.72
2019-01-15T04:00:05.615Z,101877.48
2019-01-15T04:02:34.923Z,101870.42
2019-01-15T04:05:04.848Z,101872.14
2019-01-15T04:07:33.982Z,101867.91
2019-01-15T04:10:03.096Z,101866.61
2019-01-15T04:12:32.145Z,101869.55
2019-01-15T04:15:01.201Z,101865.98
2019-01-15T04:17:30.308Z,101869.67
2019-01-15T04:19:59.446Z,101874.86
2019-01-15T04:22:28.570Z,101875.08
2019-01-15T04:24:57.631Z,101865.09
2019-01-15T04:27:26.702Z,101862.84
2019-01-15T04:29:55.743Z,101854.22
2019-01-15T04:32:24.826Z,101853.87
2019-01-15T04:34:53.881Z,101851.63
2019-01-15T04:37:22.964Z,101850.66
2019-01-15T04:39:52.157Z,101844.17
2019-01-15T04:42:21.255Z,101849.11
2019-01-15T04:44:50.300Z,101848.69
2019-01-15T04:47:19.377Z,101843.42
2019-01-15T04:49:48.428Z,101837.21
2019-01-15T04:52:18.077Z,101836.31
2019-01-15T04:54:47.249Z,101824.94
2019-01-15T04:57:16.334Z,101824.94
2019-01-15T04:59:45.559Z,101819.53
2019-01-15T05:02:14.644Z,101817.13
2019-01-15T05:04:43.704Z,101819.52
2019-01-15T05:07:12.788Z,101821.17
2019-01-15T05:09:41.877Z,101814.10
2019-01-15T05:12:10.945Z,101825.12
2019-01-15T05:14:40.016Z,101822.84
2019-01-15T05:17:09.088Z,101818.91
2019-01-15T05:19:38.165Z,101814.97
2019-01-15T05:22:07.259Z,101827.36
2019-01-15T05:24:36.325Z,101831.02
2019-01-15T05:27:05.383Z,101841.97
2019-01-15T05:29:34.521Z,101840.23
2019-01-15T05:32:03.518Z,101837.33
2019-01-15T05:34:32.646Z,101832.83
2019-01-15T05:37:01.880Z,101825.73
2019-01-15T05:39:30.955Z,101827.63
2019-01-15T05:42:00.227Z,101824.17
2019-01-15T05:44:29.382Z,101833.75
2019-01-15T05:46:58.607Z,101821.75
2019-01-15T05:49:27.693Z,101809.74
2019-01-15T05:51:56.772Z,101800.19
2019-01-15T05:54:25.901Z,101793.19
2019-01-15T05:56:54.978Z,101787.98
2019-01-15T05:59:24.064Z,101791.44
2019-01-15T06:01:53.122Z,101793.37
2019-01-15T06:04:22.202Z,101790.73
2019-01-15T06:06:51.269Z,101789.50
2019-01-15T06:09:20.341Z,101784.82
2019-01-15T06:11:49.443Z,101779.85
2019-01-15T06:14:18.516Z,101780.62
2019-01-15T06:16:47.599Z,101777.25
2019-01-15T06:19:16.655Z,101779.38
2019-01-15T06:21:45.750Z,101772.11
2019-01-15T06:24:14.829Z,101779.55
2019-01-15T06:26:43.922Z,101770.38
2019-01-15T06:29:13.260Z,101764.11
2019-01-15T06:31:43.250Z,101768.53
2019-01-15T06:34:12.326Z,101768.63
2019-01-15T06:36:41.490Z,101768.02
2019-01-15T06:39:10.780Z,101762.66
2019-01-15T06:41:39.891Z,101766.73
2019-01-15T06:44:08.964Z,101764.48
2019-01-15T06:46:38.016Z,101765.80
2019-01-15T06:49:07.152Z,101760.72
2019-01-15T06:51:36.289Z,101752.55
2019-01-15T06:54:05.450Z,101757.14
2019-01-15T06:56:34.491Z,101762.93
2019-01-15T06:59:03.658Z,101772.88
2019-01-15T07:01:32.707Z,101771.41
2019-01-15T07:04:01.954Z,101773.34
2019-01-15T07:06:31.093Z,101776.05
2019-01-15T07:09:00.154Z,101778.94
2019-01-15T07:11:29.213Z,101768.41
2019-01-15T07:13:58.421Z,101767.88
2019-01-15T07:16:27.557Z,101786.02
2019-01-15T07:18:56.620Z,101775.38
2019-01-15T07:21:25.792Z,101777.39
2019-01-15T07:23:55.051Z,101787.98
2019-01-15T07:26:24.112Z,101784.70
2019-01-15T07:28:53.180Z,101778.30
2019-01-15T07:31:22.220Z,101770.53
2019-01-15T07:33:51.387Z,101771.30
2019-01-15T07:36:20.455Z,101772.82
2019-01-15T07:38:49.605Z,101761.44
2019-01-15T07:41:18.655Z,101762.37
2019-01-15T07:43:47.783Z,101762.35
2019-01-15T07:46:16.818Z,101754.91
2019-01-15T07:48:45.909Z,101752.66
2019-01-15T07:51:14.987Z,101744.16
2019-01-15T07:53:44.055Z,101745.75
2019-01-15T07:56:13.267Z,101746.10
2019-01-15T07:58:42.336Z,101740.73
2019-01-15T08:01:11.397Z,101738.45
2019-01-15T08:03:40.936Z,101740.54
2019-01-15T08:06:10.063Z,101751.70
2019-01-15T08:08:39.181Z,101746.77
2019-01-15T08:11:08.252Z,101753.48
2019-01-15T08:13:37.355Z,101759.88
2019-01-15T08:16:06.485Z,101753.73
2019-01-15T08:18:35.536Z,101751.48
2019-01-15T08:21:04.626Z,101770.59
2019-01-15T08:23:33.720Z,101762.73
2019-01-15T08:26:02.836Z,101758.50
2019-01-15T08:28:31.900Z,101756.87
2019-01-15T08:33:35.250Z,101758.25
2019-01-15T08:36:04.353Z,101755.48
2019-01-15T08:38:33.426Z,101761.72
2019-01-15T08:41:02.690Z,101757.73
2019-01-15T08:43:31.767Z,101766.70
2019-01-15T08:46:00.875Z,101759.59
2019-01-15T08:48:32.173Z,101768.13
2019-01-15T08:51:01.793Z,101766.11
2019-01-15T08:53:31.081Z,101769.96
2019-01-15T08:56:01.080Z,101760.09
2019-01-15T08:58:30.176Z,101767.06
2019-01-15T09:00:59.230Z,101756.55
2019-01-15T09:03:28.304Z,101763.14
2019-01-15T09:05:57.370Z,101753.75
2019-01-15T09:08:26.476Z,101755.02
2019-01-15T09:10:55.602Z,101745.86
2019-01-15T09:13:24.709Z,101746.03
2019-01-15T09:15:53.773Z,101754.14
2019-01-15T09:18:22.892Z,101758.17
2019-01-15T09:20:52.117Z,101759.55
2019-01-15T09:23:21.207Z,101755.91
2019-01-15T09:25:50.285Z,101750.34
2019-01-15T09:28:19.335Z,101745.45
2019-01-15T09:30:48.487Z,101751.57
2019-01-15T09:33:17.533Z,101750.81
2019-01-15T09:35:46.658Z,101752.30
2019-01-15T09:38:15.900Z,101746.23
2019-01-15T09:40:45.021Z,101748.73
2019-01-15T09:43:14.097Z,101750.67
2019-01-15T09:45:43.222Z,101746.55
2019-01-15T09:48:16.388Z,101748.24
2019-01-15T09:50:45.562Z,101742.34
2019-01-15T09:53:14.620Z,101738.30
2019-01-15T09:55:43.728Z,101733.76
2019-01-15T09:58:12.781Z,101742.70
2019-01-15T10:00:41.867Z,101736.48
2019-01-15T10:03:10.905Z,101728.79
2019-01-15T10:05:39.979Z,101732.72
2019-01-15T10:08:09.245Z,101727.12
2019-01-15T10:10:38.350Z,101727.98
2019-01-15T10:13:07.402Z,101725.53
2019-01-15T10:15:36.495Z,101717.98
2019-01-15T10:18:05.859Z,101710.99
2019-01-15T10:20:34.955Z,101716.47
2019-01-15T10:23:04.101Z,101710.59
2019-01-15T10:25:33.954Z,101718.98
2019-01-15T10:28:03.121Z,101713.90
2019-01-15T10:31:13.486Z,101711.92
2019-01-15T10:33:47.989Z,101712.03
2019-01-15T10:36:15.492Z,101711.80
2019-01-15T10:38:44.606Z,101719.08
2019-01-15T10:41:13.648Z,101713.08
2019-01-15T10:43:42.743Z,101707.08
2019-01-15T10:46:11.851Z,101694.36
2019-01-15T10:48:40.986Z,101690.04
2019-01-15T10:51:10.104Z,101686.71
2019-01-15T10:53:39.294Z,101689.91
2019-01-15T10:56:08.383Z,101697.48
2019-01-15T10:58:37.511Z,101693.70
2019-01-15T11:01:06.649Z,101688.28
2019-01-15T11:03:35.746Z,101689.82
2019-01-15T11:06:04.903Z,101690.06
2019-01-15T11:08:33.984Z,101690.45
2019-01-15T11:11:03.147Z,101684.19
2019-01-15T11:13:32.311Z,101687.03
2019-01-15T11:16:01.432Z,101686.50
2019-01-15T11:18:30.522Z,101686.48
2019-01-15T11:20:59.699Z,101682.86
2019-01-15T11:23:28.783Z,101685.13
2019-01-15T11:25:57.920Z,101673.28
2019-01-15T11:28:26.968Z,101682.44
2019-01-15T11:30:56.120Z,101678.17
2019-01-15T11:33:25.214Z,101680.61
2019-01-15T11:35:54.299Z,101669.12
2019-01-15T11:38:23.347Z,101679.48
2019-01-15T11:40:52.569Z,101672.94
2019-01-15T11:43:21.656Z,101668.20
2019-01-15T11:45:50.841Z,101670.87
2019-01-15T11:48:19.893Z,101663.86
2019-01-15T11:50:49.073Z,101656.45
2019-01-15T11:53:18.113Z,101657.58
2019-01-15T11:55:47.210Z,101656.08
2019-01-15T11:58:16.317Z,101646.13
2019-01-15T12:01:07.683Z,101649.41
2019-01-15T12:03:55.784Z,101656.20
2019-01-15T12:06:42.749Z,101654.83
2019-01-15T12:09:26.253Z,101656.80
2019-01-15T12:12:13.032Z,101657.07
2019-01-15T12:15:10.617Z,101649.66
2019-01-15T12:17:56.603Z,101650.59
2019-01-15T12:20:37.277Z,101648.81
2019-01-15T12:23:24.215Z,101643.66
2019-01-15T12:26:21.522Z,101644.05
2019-01-15T12:29:15.612Z,101638.48
2019-01-15T12:32:22.129Z,101635.84
2019-01-15T12:35:22.404Z,101632.42
2019-01-15T12:38:09.025Z,101629.98
2019-01-15T12:40:59.853Z,101627.85
2019-01-15T12:43:50.240Z,101622.52
2019-01-15T12:46:50.365Z,101624.36
2019-01-15T12:49:38.430Z,101620.37
2019-01-15T12:52:41.560Z,101610.64
2019-01-15T12:55:28.412Z,101625.03
2019-01-15T12:58:15.905Z,101612.95
2019-01-15T13:01:15.607Z,101607.83
2019-01-15T13:04:03.675Z,101598.12
2019-01-15T13:06:54.453Z,101607.11
2019-01-15T13:09:33.052Z,101589.66
2019-01-15T13:12:27.088Z,101598.17
2019-01-15T13:15:06.154Z,101600.95
2019-01-15T13:17:54.184Z,101599.97
2019-01-15T13:20:45.855Z,101606.69
2019-01-15T13:23:41.010Z,101610.16
2019-01-15T13:26:47.271Z,101606.02
2019-01-15T13:29:44.709Z,101608.01
2019-01-15T13:32:26.760Z,101602.70
2019-01-15T13:35:19.759Z,101601.55
2019-01-15T13:38:23.202Z,101603.38
2019-01-15T13:41:09.450Z,101608.25
2019-01-15T13:43:57.521Z,101610.20
2019-01-15T13:46:48.509Z,101600.77
2019-01-15T13:49:46.453Z,101596.14
2019-01-15T13:52:37.600Z,101604.57
2019-01-15T13:55:38.447Z,101603.98
2019-01-15T13:58:35.598Z,101598.12
2019-01-15T14:01:38.331Z,101603.34
2019-01-15T14:04:22.032Z,101589.28
2019-01-15T14:07:08.776Z,101585.83
2019-01-15T14:10:15.811Z,101587.70
2019-01-15T14:13:10.016Z,101582.47
2019-01-15T14:16:08.240Z,101581.20
2019-01-15T14:18:59.362Z,101582.61
2019-01-15T14:21:53.502Z,101574.07
2019-01-15T14:24:41.553Z,101566.02
2019-01-15T14:27:32.566Z,101574.86
2019-01-15T14:30:28.743Z,101569.20
2019-01-15T14:33:29.234Z,101571.84
2019-01-15T14:36:08.548Z,101573.28
2019-01-15T14:38:55.185Z,101575.06
2019-01-15T14:41:42.356Z,101567.41
2019-01-15T14:44:44.084Z,101571.45
2019-01-15T14:47:38.576Z,101566.69
2019-01-15T14:50:45.094Z,101568.95
2019-01-15T14:53:27.907Z,101560.59
2019-01-15T14:56:16.625Z,101570.24
2019-01-15T14:58:59.964Z,101568.24
2019-01-15T15:01:48.115Z,101568.52
2019-01-15T15:04:35.076Z,101564.02
2019-01-15T15:07:36.748Z,101564.39
2019-01-15T15:10:28.485Z,101560.24
2019-01-15T15:13:16.580Z,101558.34
2019-01-15T15:16:03.796Z,101553.33
2019-01-15T15:18:51.918Z,101551.67
2019-01-15T15:21:34.969Z,101547.16
2019-01-15T15:24:22.725Z,101549.69
2019-01-15T15:27:19.926Z,101548.80
2019-01-15T15:30:03.467Z,101547.26
2019-01-15T15:32:51.568Z,101551.80
2019-01-15T15:35:42.548Z,101549.59
2019-01-15T15:38:32.226Z,101545.48
2019-01-15T15:41:35.755Z,101554.00
2019-01-15T15:44:18.217Z,101554.31
2019-01-15T15:47:00.550Z,101546.13
2019-01-15T15:49:51.425Z,101547.55
2019-01-15T15:52:39.740Z,101553.30
2019-01-15T15:55:26.634Z,101557.62
2019-01-15T15:58:12.469Z,101561.05
2019-01-15T16:00:57.936Z,101548.80
2019-01-15T16:03:35.595Z,101556.31
2019-01-15T16:06:26.741Z,101555.91
2019-01-15T16:09:21.026Z,101549.38
2019-01-15T16:12:14.873Z,101541.43
2019-01-15T16:15:18.070Z,101554.52
2019-01-15T16:18:06.156Z,101547.55
2019-01-15T16:20:54.215Z,101539.09
2019-01-15T16:23:51.241Z,101547.97
2019-01-15T16:26:39.322Z,101548.33
2019-01-15T16:29:30.373Z,101547.50
2019-01-15T16:32:18.432Z,101541.45
2019-01-15T16:35:02.210Z,101548.25
2019-01-15T16:37:43.412Z,101549.36
2019-01-15T16:40:30.127Z,101535.64
2019-01-15T16:43:13.666Z,101534.15
2019-01-15T16:46:09.537Z,101533.80
2019-01-15T16:48:55.833Z,101538.94
2019-01-15T16:51:36.715Z,101534.89
2019-01-15T16:54:24.695Z,101540.05
2019-01-15T16:57:11.845Z,101526.06
2019-01-15T16:59:58.703Z,101540.28
2019-01-15T17:02:46.778Z,101537.73
2019-01-15T17:05:33.670Z,101537.27
2019-01-15T17:08:24.842Z,101529.57
2019-01-15T17:11:12.964Z,101533.03
2019-01-15T17:13:59.946Z,101531.73
2019-01-15T17:17:06.196Z,101528.16
2019-01-15T17:19:46.522Z,101527.27
2019-01-15T17:22:36.047Z,101528.27
2019-01-15T17:25:33.518Z,101527.27
2019-01-15T17:28:30.608Z,101526.62
2019-01-15T17:31:17.511Z,101528.73
2019-01-15T17:34:00.613Z,101528.11
2019-01-15T17:36:46.071Z,101519.82
2019-01-15T17:39:34.252Z,101525.17
2019-01-15T17:42:20.921Z,101529.10
2019-01-15T17:45:07.887Z,101514.73
2019-01-15T17:47:56.046Z,101521.96
2019-01-15T17:50:42.724Z,101522.19
2019-01-15T17:53:46.122Z,101533.94
2019-01-15T17:56:41.579Z,101524.58
2019-01-15T17:59:35.794Z,101521.47
2019-01-15T18:02:39.602Z,101522.45
2019-01-15T18:05:30.429Z,101521.41
2019-01-15T18:08:17.072Z,101512.37
2019-01-15T18:11:03.958Z,101514.69
2019-01-15T18:14:10.234Z,101516.48
2019-01-15T18:16:56.919Z,101519.94
2019-01-15T18:19:42.457Z,101515.18
2019-01-15T18:22:33.271Z,101518.77
2019-01-15T18:25:32.851Z,101520.11
2019-01-15T18:28:39.234Z,101516.04
2019-01-15T18:31:42.749Z,101509.89
2019-01-15T18:34:19.855Z,101514.31
2019-01-15T18:37:20.328Z,101515.03
2019-01-15T18:40:17.616Z,101513.32
2019-01-15T18:43:05.750Z,101511.67
2019-01-15T18:45:53.886Z,101512.09
2019-01-15T18:48:43.755Z,101515.26
2019-01-15T18:51:31.120Z,101505.15
2019-01-15T18:54:18.067Z,101508.05
2019-01-15T18:57:06.173Z,101506.17
2019-01-15T19:00:03.751Z,101507.75
2019-01-15T19:02:57.058Z,101509.27
2019-01-15T19:06:02.362Z,101505.08
2019-01-15T19:08:45.801Z,101499.68
2019-01-15T19:11:25.293Z,101493.80
2019-01-15T19:14:16.548Z,101493.09
2019-01-15T19:17:20.106Z,101491.23
2019-01-15T19:20:00.939Z,101495.63
2019-01-15T19:22:49.131Z,101489.58
2019-01-15T19:25:35.761Z,101493.70
2019-01-15T19:28:23.263Z,101496.94
2019-01-15T19:31:17.444Z,101501.13
2019-01-15T19:34:04.199Z,101498.63
2019-01-15T19:36:50.578Z,101484.94
2019-01-15T19:39:27.959Z,101494.05
2019-01-15T19:42:25.135Z,101501.94
2019-01-15T19:45:12.192Z,101500.39
2019-01-15T19:47:59.210Z,101499.30
2019-01-15T19:51:02.442Z,101494.17
2019-01-15T19:53:45.934Z,101492.74
2019-01-15T19:56:47.515Z,101498.09
2019-01-15T19:59:25.705Z,101493.18
2019-01-15T20:02:25.992Z,101494.15
2019-01-15T20:05:04.439Z,101489.75
2019-01-15T20:07:58.371Z,101485.23
2019-01-15T20:10:49.558Z,101493.08
2019-01-15T20:13:56.033Z,101492.91
2019-01-15T20:16:43.881Z,101491.34
2019-01-15T20:19:37.830Z,101494.09
2019-01-15T20:22:44.135Z,101493.93
2019-01-15T20:25:44.482Z,101487.65
2019-01-15T20:28:31.282Z,101497.50
2019-01-15T20:31:07.419Z,101494.09
2019-01-15T20:33:55.480Z,101491.37
2019-01-15T20:36:46.688Z,101490.78
2019-01-15T20:39:35.635Z,101486.59
2019-01-15T20:42:38.861Z,101495.38
2019-01-15T20:45:29.842Z,101496.78
2019-01-15T20:48:16.596Z,101494.94
2019-01-15T20:51:07.730Z,101493.48
2019-01-15T20:53:55.871Z,101494.45
2019-01-15T20:56:43.971Z,101494.33
2019-01-15T20:59:47.373Z,101488.40
2019-01-15T21:02:35.410Z,101491.31
2019-01-15T21:05:24.015Z,101483.20
2019-01-15T21:08:25.269Z,101494.69
2019-01-15T21:11:07.989Z,101486.52
2019-01-15T21:13:54.687Z,101498.39
2019-01-15T21:16:42.767Z,101488.14
2019-01-15T21:19:29.700Z,101491.83
2019-01-15T21:22:16.455Z,101490.64
2019-01-15T21:25:16.826Z,101486.12
2019-01-15T21:28:20.201Z,101484.08
2019-01-15T21:31:13.929Z,101482.31
2019-01-15T21:34:03.410Z,101487.92
2019-01-15T21:36:55.223Z,101485.80
2019-01-15T21:39:41.966Z,101482.91
2019-01-15T21:42:46.950Z,101482.31
2019-01-15T21:45:50.300Z,101479.78
2019-01-15T21:48:36.739Z,101477.66
2019-01-15T21:51:23.366Z,101469.80
2019-01-15T21:54:18.220Z,101470.38
2019-01-15T21:57:09.104Z,101465.80
2019-01-15T22:00:07.231Z,101477.16
2019-01-15T22:02:53.845Z,101472.72
2019-01-15T22:05:45.143Z,101474.03
2019-01-15T22:08:33.230Z,101469.61
2019-01-15T22:11:10.198Z,101467.09
2019-01-15T22:14:02.620Z,101467.09
2019-01-15T22:16:56.968Z,101462.77
2019-01-15T22:19:48.155Z,101462.59
2019-01-15T22:22:36.182Z,101455.59
2019-01-15T22:25:20.393Z,101455.08
2019-01-15T22:28:04.803Z,101457.05
2019-01-15T22:30:55.927Z,101453.12
2019-01-15T22:33:48.357Z,101446.36
2019-01-15T22:36:41.518Z,101449.20
2019-01-15T22:39:44.608Z,101442.16
2019-01-15T22:42:24.733Z,101446.20
2019-01-15T22:45:12.810Z,101430.13
2019-01-15T22:48:03.742Z,101434.16
2019-01-15T22:50:50.430Z,101427.98
2019-01-15T22:53:38.556Z,101422.23
2019-01-15T22:56:19.838Z,101416.61
2019-01-15T22:59:19.785Z,101406.94
2019-01-15T23:01:56.732Z,101420.09
2019-01-15T23:05:02.905Z,101412.47
2019-01-15T23:07:56.756Z,101419.08
2019-01-15T23:10:43.684Z,101411.47
2019-01-15T23:13:46.840Z,101415.30
2019-01-15T23:16:36.795Z,101411.05
2019-01-15T23:19:20.704Z,101413.73
2019-01-15T23:22:27.062Z,101401.89
2019-01-15T23:25:13.801Z,101393.55
2019-01-15T23:28:04.675Z,101393.16
2019-01-15T23:30:52.658Z,101386.61
2019-01-15T23:33:39.838Z,101383.40
2019-01-15T23:36:36.747Z,101394.53
2019-01-15T23:39:27.944Z,101394.95
2019-01-15T23:42:10.215Z,101386.13
2019-01-15T23:45:01.295Z,101388.03
2019-01-15T23:47:52.947Z,101384.59
2019-01-15T23:50:36.308Z,101377.97
2019-01-15T23:53:24.343Z,101370.12
2019-01-15T23:56:21.270Z,101364.83
2019-01-15T23:59:04.242Z,101363.06
